sensor_id;sensor_type;location;lat;lon;timestamp;P1;durP1;ratioP1;P2;durP2;ratioP2
71896;SDS011;59767;51.344;12.362;2023-02-28T00:00:56;8.57;;;2.90;;
71896;SDS011;59767;51.344;12.362;2023-02-28T00:04:01;7.57;;;2.55;;
71896;SDS011;59767;51.344;12.362;2023-02-28T00:07:05;10.45;;;3.40;;
71896;SDS011;59767;51.344;12.362;2023-02-28T00:10:10;8.90;;;2.60;;
71896;SDS011;59767;51.344;12.362;2023-02-28T00:13:16;9.50;;;3.00;;
71896;SDS011;59767;51.344;12.362;2023-02-28T00:16:20;9.57;;;2.92;;
71896;SDS011;59767;51.344;12.362;2023-02-28T00:19:25;7.97;;;2.83;;
71896;SDS011;59767;51.344;12.362;2023-02-28T00:22:30;10.85;;;3.00;;
71896;SDS011;59767;51.344;12.362;2023-02-28T00:25:34;10.27;;;2.90;;
71896;SDS011;59767;51.344;12.362;2023-02-28T00:28:38;7.85;;;3.00;;
71896;SDS011;59767;51.344;12.362;2023-02-28T00:31:42;10.20;;;3.30;;
71896;SDS011;59767;51.344;12.362;2023-02-28T00:34:46;8.85;;;3.10;;
71896;SDS011;59767;51.344;12.362;2023-02-28T00:37:50;9.75;;;3.15;;
71896;SDS011;59767;51.344;12.362;2023-02-28T00:40:55;9.35;;;2.90;;
71896;SDS011;59767;51.344;12.362;2023-02-28T00:43:59;8.05;;;3.08;;
71896;SDS011;59767;51.344;12.362;2023-02-28T00:47:03;8.25;;;3.10;;
71896;SDS011;59767;51.344;12.362;2023-02-28T00:50:08;11.40;;;3.17;;
71896;SDS011;59767;51.344;12.362;2023-02-28T00:53:13;14.20;;;3.28;;
71896;SDS011;59767;51.344;12.362;2023-02-28T00:56:17;9.35;;;3.20;;
71896;SDS011;59767;51.344;12.362;2023-02-28T00:59:21;7.50;;;3.08;;
71896;SDS011;59767;51.344;12.362;2023-02-28T01:02:25;8.02;;;2.90;;
71896;SDS011;59767;51.344;12.362;2023-02-28T01:05:29;9.85;;;2.90;;
71896;SDS011;59767;51.344;12.362;2023-02-28T01:08:33;10.23;;;3.30;;
71896;SDS011;59767;51.344;12.362;2023-02-28T01:11:37;8.82;;;3.10;;
71896;SDS011;59767;51.344;12.362;2023-02-28T01:14:42;9.50;;;3.15;;
71896;SDS011;59767;51.344;12.362;2023-02-28T01:17:46;7.47;;;2.95;;
71896;SDS011;59767;51.344;12.362;2023-02-28T01:20:50;9.15;;;3.00;;
71896;SDS011;59767;51.344;12.362;2023-02-28T01:23:56;11.30;;;3.10;;
71896;SDS011;59767;51.344;12.362;2023-02-28T01:27:01;9.60;;;3.13;;
71896;SDS011;59767;51.344;12.362;2023-02-28T01:30:05;9.60;;;3.28;;
71896;SDS011;59767;51.344;12.362;2023-02-28T01:33:13;10.35;;;3.40;;
71896;SDS011;59767;51.344;12.362;2023-02-28T01:36:19;8.35;;;2.90;;
71896;SDS011;59767;51.344;12.362;2023-02-28T01:39:25;10.25;;;3.45;;
71896;SDS011;59767;51.344;12.362;2023-02-28T01:42:29;9.02;;;3.20;;
71896;SDS011;59767;51.344;12.362;2023-02-28T01:45:33;13.23;;;3.50;;
71896;SDS011;59767;51.344;12.362;2023-02-28T01:48:44;9.23;;;3.05;;
71896;SDS011;59767;51.344;12.362;2023-02-28T01:51:55;8.05;;;2.85;;
71896;SDS011;59767;51.344;12.362;2023-02-28T01:55:00;8.90;;;3.10;;
71896;SDS011;59767;51.344;12.362;2023-02-28T01:58:07;8.52;;;2.85;;
71896;SDS011;59767;51.344;12.362;2023-02-28T02:01:13;8.40;;;2.78;;
71896;SDS011;59767;51.344;12.362;2023-02-28T02:04:26;8.20;;;2.90;;
71896;SDS011;59767;51.344;12.362;2023-02-28T02:07:36;8.88;;;3.30;;
71896;SDS011;59767;51.344;12.362;2023-02-28T02:10:44;7.30;;;3.00;;
71896;SDS011;59767;51.344;12.362;2023-02-28T02:17:16;8.85;;;2.97;;
71896;SDS011;59767;51.344;12.362;2023-02-28T02:27:24;10.57;;;3.63;;
71896;SDS011;59767;51.344;12.362;2023-02-28T02:30:59;9.52;;;3.33;;
71896;SDS011;59767;51.344;12.362;2023-02-28T02:34:17;7.93;;;2.80;;
71896;SDS011;59767;51.344;12.362;2023-02-28T02:37:38;10.20;;;3.10;;
71896;SDS011;59767;51.344;12.362;2023-02-28T02:41:08;8.48;;;3.22;;
71896;SDS011;59767;51.344;12.362;2023-02-28T02:47:44;7.90;;;3.08;;
71896;SDS011;59767;51.344;12.362;2023-02-28T02:50:53;11.45;;;3.55;;
71896;SDS011;59767;51.344;12.362;2023-02-28T02:54:02;8.88;;;3.00;;
71896;SDS011;59767;51.344;12.362;2023-02-28T02:57:22;7.53;;;2.78;;
71896;SDS011;59767;51.344;12.362;2023-02-28T03:00:32;8.63;;;3.20;;
71896;SDS011;59767;51.344;12.362;2023-02-28T03:03:41;10.90;;;3.20;;
71896;SDS011;59767;51.344;12.362;2023-02-28T03:06:46;10.35;;;3.20;;
71896;SDS011;59767;51.344;12.362;2023-02-28T03:09:52;10.15;;;2.97;;
71896;SDS011;59767;51.344;12.362;2023-02-28T03:13:07;10.68;;;3.30;;
71896;SDS011;59767;51.344;12.362;2023-02-28T03:16:28;10.10;;;3.17;;
71896;SDS011;59767;51.344;12.362;2023-02-28T03:20:16;8.40;;;3.00;;
71896;SDS011;59767;51.344;12.362;2023-02-28T03:23:21;9.07;;;3.20;;
71896;SDS011;59767;51.344;12.362;2023-02-28T03:26:31;9.57;;;3.25;;
71896;SDS011;59767;51.344;12.362;2023-02-28T03:29:42;9.57;;;3.22;;
71896;SDS011;59767;51.344;12.362;2023-02-28T03:32:54;9.93;;;3.50;;
71896;SDS011;59767;51.344;12.362;2023-02-28T03:36:03;7.90;;;2.88;;
71896;SDS011;59767;51.344;12.362;2023-02-28T03:39:13;9.98;;;3.60;;
71896;SDS011;59767;51.344;12.362;2023-02-28T03:42:22;12.55;;;3.53;;
71896;SDS011;59767;51.344;12.362;2023-02-28T03:45:29;10.90;;;3.47;;
71896;SDS011;59767;51.344;12.362;2023-02-28T03:48:47;10.10;;;3.20;;
71896;SDS011;59767;51.344;12.362;2023-02-28T03:52:01;10.52;;;3.28;;
71896;SDS011;59767;51.344;12.362;2023-02-28T03:55:08;10.27;;;3.78;;
71896;SDS011;59767;51.344;12.362;2023-02-28T03:58:20;9.52;;;3.60;;
71896;SDS011;59767;51.344;12.362;2023-02-28T04:04:39;9.15;;;2.97;;
71896;SDS011;59767;51.344;12.362;2023-02-28T04:07:52;10.02;;;3.53;;
71896;SDS011;59767;51.344;12.362;2023-02-28T04:10:58;10.63;;;3.50;;
71896;SDS011;59767;51.344;12.362;2023-02-28T04:14:08;10.98;;;3.60;;
71896;SDS011;59767;51.344;12.362;2023-02-28T04:17:13;9.30;;;3.60;;
71896;SDS011;59767;51.344;12.362;2023-02-28T04:20:17;9.25;;;3.10;;
71896;SDS011;59767;51.344;12.362;2023-02-28T04:23:21;11.02;;;3.15;;
71896;SDS011;59767;51.344;12.362;2023-02-28T04:26:28;12.77;;;3.45;;
71896;SDS011;59767;51.344;12.362;2023-02-28T04:29:35;10.40;;;3.72;;
71896;SDS011;59767;51.344;12.362;2023-02-28T04:32:39;10.23;;;3.45;;
71896;SDS011;59767;51.344;12.362;2023-02-28T04:35:44;10.77;;;3.53;;
71896;SDS011;59767;51.344;12.362;2023-02-28T04:38:47;8.90;;;3.20;;
71896;SDS011;59767;51.344;12.362;2023-02-28T04:41:52;12.57;;;3.88;;
71896;SDS011;59767;51.344;12.362;2023-02-28T04:44:56;11.80;;;3.70;;
71896;SDS011;59767;51.344;12.362;2023-02-28T04:48:00;10.32;;;3.55;;
71896;SDS011;59767;51.344;12.362;2023-02-28T04:51:05;9.25;;;3.17;;
71896;SDS011;59767;51.344;12.362;2023-02-28T04:54:14;9.00;;;3.10;;
71896;SDS011;59767;51.344;12.362;2023-02-28T04:57:19;9.35;;;3.35;;
71896;SDS011;59767;51.344;12.362;2023-02-28T05:00:24;9.18;;;3.30;;
71896;SDS011;59767;51.344;12.362;2023-02-28T05:03:28;10.52;;;3.88;;
71896;SDS011;59767;51.344;12.362;2023-02-28T05:06:32;11.15;;;3.17;;
71896;SDS011;59767;51.344;12.362;2023-02-28T05:09:37;10.88;;;3.25;;
71896;SDS011;59767;51.344;12.362;2023-02-28T05:12:41;9.02;;;3.50;;
71896;SDS011;59767;51.344;12.362;2023-02-28T05:15:45;11.27;;;3.75;;
71896;SDS011;59767;51.344;12.362;2023-02-28T05:18:49;7.95;;;3.38;;
71896;SDS011;59767;51.344;12.362;2023-02-28T05:21:55;9.65;;;3.30;;
71896;SDS011;59767;51.344;12.362;2023-02-28T05:24:59;11.30;;;3.75;;
71896;SDS011;59767;51.344;12.362;2023-02-28T05:28:03;11.52;;;3.60;;
71896;SDS011;59767;51.344;12.362;2023-02-28T05:31:10;9.25;;;3.40;;
71896;SDS011;59767;51.344;12.362;2023-02-28T05:34:15;11.00;;;3.65;;
71896;SDS011;59767;51.344;12.362;2023-02-28T05:37:20;13.90;;;3.30;;
71896;SDS011;59767;51.344;12.362;2023-02-28T05:40:25;9.30;;;3.40;;
71896;SDS011;59767;51.344;12.362;2023-02-28T05:43:29;13.00;;;3.88;;
71896;SDS011;59767;51.344;12.362;2023-02-28T05:46:34;10.07;;;3.50;;
71896;SDS011;59767;51.344;12.362;2023-02-28T05:49:38;10.25;;;3.92;;
71896;SDS011;59767;51.344;12.362;2023-02-28T05:52:42;10.45;;;3.63;;
71896;SDS011;59767;51.344;12.362;2023-02-28T05:55:46;8.02;;;3.25;;
71896;SDS011;59767;51.344;12.362;2023-02-28T05:58:50;11.38;;;4.22;;
71896;SDS011;59767;51.344;12.362;2023-02-28T06:01:57;8.40;;;2.95;;
71896;SDS011;59767;51.344;12.362;2023-02-28T06:05:01;11.30;;;3.75;;
71896;SDS011;59767;51.344;12.362;2023-02-28T06:08:05;12.60;;;3.90;;
71896;SDS011;59767;51.344;12.362;2023-02-28T06:11:11;15.30;;;4.15;;
71896;SDS011;59767;51.344;12.362;2023-02-28T06:14:16;7.82;;;3.38;;
71896;SDS011;59767;51.344;12.362;2023-02-28T06:17:22;14.75;;;3.95;;
71896;SDS011;59767;51.344;12.362;2023-02-28T06:20:26;10.88;;;3.47;;
71896;SDS011;59767;51.344;12.362;2023-02-28T06:23:34;12.45;;;4.32;;
71896;SDS011;59767;51.344;12.362;2023-02-28T06:26:38;12.65;;;3.95;;
71896;SDS011;59767;51.344;12.362;2023-02-28T06:29:42;16.48;;;4.05;;
71896;SDS011;59767;51.344;12.362;2023-02-28T06:32:46;10.63;;;3.60;;
71896;SDS011;59767;51.344;12.362;2023-02-28T06:35:52;14.77;;;4.10;;
71896;SDS011;59767;51.344;12.362;2023-02-28T06:38:57;14.32;;;3.95;;
71896;SDS011;59767;51.344;12.362;2023-02-28T06:42:01;14.30;;;4.05;;
71896;SDS011;59767;51.344;12.362;2023-02-28T06:45:05;12.50;;;4.30;;
71896;SDS011;59767;51.344;12.362;2023-02-28T06:48:13;12.32;;;4.30;;
71896;SDS011;59767;51.344;12.362;2023-02-28T06:51:18;10.80;;;3.90;;
71896;SDS011;59767;51.344;12.362;2023-02-28T06:54:28;10.23;;;3.88;;
71896;SDS011;59767;51.344;12.362;2023-02-28T06:57:32;15.75;;;4.35;;
71896;SDS011;59767;51.344;12.362;2023-02-28T07:00:38;12.35;;;4.10;;
71896;SDS011;59767;51.344;12.362;2023-02-28T07:03:42;13.88;;;4.35;;
71896;SDS011;59767;51.344;12.362;2023-02-28T07:06:46;13.93;;;4.18;;
71896;SDS011;59767;51.344;12.362;2023-02-28T07:09:51;11.82;;;4.35;;
71896;SDS011;59767;51.344;12.362;2023-02-28T07:12:55;14.80;;;4.60;;
71896;SDS011;59767;51.344;12.362;2023-02-28T07:16:00;13.85;;;4.53;;
71896;SDS011;59767;51.344;12.362;2023-02-28T07:19:09;12.13;;;3.90;;
71896;SDS011;59767;51.344;12.362;2023-02-28T07:22:13;12.27;;;4.43;;
71896;SDS011;59767;51.344;12.362;2023-02-28T07:25:18;14.68;;;4.28;;
71896;SDS011;59767;51.344;12.362;2023-02-28T07:28:22;15.45;;;4.40;;
71896;SDS011;59767;51.344;12.362;2023-02-28T07:31:26;18.20;;;4.53;;
71896;SDS011;59767;51.344;12.362;2023-02-28T07:34:31;14.52;;;4.15;;
71896;SDS011;59767;51.344;12.362;2023-02-28T07:37:35;12.48;;;4.60;;
71896;SDS011;59767;51.344;12.362;2023-02-28T07:40:42;16.15;;;4.45;;
71896;SDS011;59767;51.344;12.362;2023-02-28T07:43:46;11.48;;;4.13;;
71896;SDS011;59767;51.344;12.362;2023-02-28T07:46:50;11.98;;;4.15;;
71896;SDS011;59767;51.344;12.362;2023-02-28T07:49:56;12.93;;;4.45;;
71896;SDS011;59767;51.344;12.362;2023-02-28T07:53:01;15.27;;;4.60;;
71896;SDS011;59767;51.344;12.362;2023-02-28T07:56:06;15.95;;;4.72;;
71896;SDS011;59767;51.344;12.362;2023-02-28T07:59:10;12.23;;;4.05;;
71896;SDS011;59767;51.344;12.362;2023-02-28T08:02:15;15.63;;;4.38;;
71896;SDS011;59767;51.344;12.362;2023-02-28T08:05:19;14.73;;;4.38;;
71896;SDS011;59767;51.344;12.362;2023-02-28T08:08:25;13.05;;;4.55;;
71896;SDS011;59767;51.344;12.362;2023-02-28T08:11:33;11.95;;;4.25;;
71896;SDS011;59767;51.344;12.362;2023-02-28T08:14:37;12.80;;;3.70;;
71896;SDS011;59767;51.344;12.362;2023-02-28T08:17:41;12.32;;;4.00;;
71896;SDS011;59767;51.344;12.362;2023-02-28T08:20:45;13.40;;;3.72;;
71896;SDS011;59767;51.344;12.362;2023-02-28T08:23:50;13.52;;;3.83;;
71896;SDS011;59767;51.344;12.362;2023-02-28T08:26:55;12.70;;;3.75;;
71896;SDS011;59767;51.344;12.362;2023-02-28T08:30:00;8.90;;;3.40;;
71896;SDS011;59767;51.344;12.362;2023-02-28T08:33:04;12.10;;;4.18;;
71896;SDS011;59767;51.344;12.362;2023-02-28T08:36:08;12.18;;;3.22;;
71896;SDS011;59767;51.344;12.362;2023-02-28T08:39:15;10.63;;;3.17;;
71896;SDS011;59767;51.344;12.362;2023-02-28T08:42:19;11.45;;;3.25;;
71896;SDS011;59767;51.344;12.362;2023-02-28T08:45:24;12.50;;;3.00;;
71896;SDS011;59767;51.344;12.362;2023-02-28T08:48:29;8.45;;;2.92;;
71896;SDS011;59767;51.344;12.362;2023-02-28T08:51:35;8.98;;;2.85;;
71896;SDS011;59767;51.344;12.362;2023-02-28T08:54:39;8.02;;;2.92;;
71896;SDS011;59767;51.344;12.362;2023-02-28T08:57:43;10.32;;;3.33;;
71896;SDS011;59767;51.344;12.362;2023-02-28T09:00:48;11.38;;;3.70;;
71896;SDS011;59767;51.344;12.362;2023-02-28T09:03:52;12.98;;;3.30;;
71896;SDS011;59767;51.344;12.362;2023-02-28T09:07:02;12.85;;;3.35;;
71896;SDS011;59767;51.344;12.362;2023-02-28T09:10:06;10.48;;;3.40;;
71896;SDS011;59767;51.344;12.362;2023-02-28T09:13:11;11.68;;;3.10;;
71896;SDS011;59767;51.344;12.362;2023-02-28T09:16:15;12.23;;;3.38;;
71896;SDS011;59767;51.344;12.362;2023-02-28T09:19:20;11.30;;;3.58;;
71896;SDS011;59767;51.344;12.362;2023-02-28T09:22:25;9.70;;;2.92;;
71896;SDS011;59767;51.344;12.362;2023-02-28T09:25:29;11.00;;;3.40;;
71896;SDS011;59767;51.344;12.362;2023-02-28T09:28:33;10.63;;;3.20;;
71896;SDS011;59767;51.344;12.362;2023-02-28T09:31:38;10.00;;;2.92;;
71896;SDS011;59767;51.344;12.362;2023-02-28T09:34:42;7.90;;;2.83;;
71896;SDS011;59767;51.344;12.362;2023-02-28T09:37:47;9.00;;;2.80;;
71896;SDS011;59767;51.344;12.362;2023-02-28T09:40:53;10.18;;;3.10;;
71896;SDS011;59767;51.344;12.362;2023-02-28T09:44:01;14.05;;;3.03;;
71896;SDS011;59767;51.344;12.362;2023-02-28T09:50:38;11.73;;;2.80;;
71896;SDS011;59767;51.344;12.362;2023-02-28T09:53:45;9.25;;;3.25;;
71896;SDS011;59767;51.344;12.362;2023-02-28T09:56:57;8.82;;;3.17;;
71896;SDS011;59767;51.344;12.362;2023-02-28T10:03:30;8.90;;;3.10;;
71896;SDS011;59767;51.344;12.362;2023-02-28T10:06:40;8.80;;;3.33;;
71896;SDS011;59767;51.344;12.362;2023-02-28T10:09:52;10.75;;;3.45;;
71896;SDS011;59767;51.344;12.362;2023-02-28T10:12:59;12.20;;;3.72;;
71896;SDS011;59767;51.344;12.362;2023-02-28T10:16:11;12.75;;;3.47;;
71896;SDS011;59767;51.344;12.362;2023-02-28T10:23:11;9.60;;;3.00;;
71896;SDS011;59767;51.344;12.362;2023-02-28T10:26:20;12.93;;;3.70;;
71896;SDS011;59767;51.344;12.362;2023-02-28T10:29:24;12.93;;;3.35;;
71896;SDS011;59767;51.344;12.362;2023-02-28T10:32:31;12.73;;;3.20;;
71896;SDS011;59767;51.344;12.362;2023-02-28T10:35:37;10.60;;;3.15;;
71896;SDS011;59767;51.344;12.362;2023-02-28T10:38:41;9.57;;;3.28;;
71896;SDS011;59767;51.344;12.362;2023-02-28T10:41:46;10.57;;;3.75;;
71896;SDS011;59767;51.344;12.362;2023-02-28T10:45:04;11.38;;;3.50;;
71896;SDS011;59767;51.344;12.362;2023-02-28T10:51:18;10.20;;;3.78;;
71896;SDS011;59767;51.344;12.362;2023-02-28T10:54:24;15.63;;;3.60;;
71896;SDS011;59767;51.344;12.362;2023-02-28T10:57:33;8.60;;;3.20;;
71896;SDS011;59767;51.344;12.362;2023-02-28T11:00:37;11.15;;;3.78;;
71896;SDS011;59767;51.344;12.362;2023-02-28T11:03:41;11.07;;;3.53;;
71896;SDS011;59767;51.344;12.362;2023-02-28T11:06:45;11.55;;;3.60;;
71896;SDS011;59767;51.344;12.362;2023-02-28T11:09:54;10.45;;;3.90;;
71896;SDS011;59767;51.344;12.362;2023-02-28T11:12:59;12.60;;;4.30;;
71896;SDS011;59767;51.344;12.362;2023-02-28T11:16:06;13.23;;;3.50;;
71896;SDS011;59767;51.344;12.362;2023-02-28T11:19:22;13.05;;;3.70;;
71896;SDS011;59767;51.344;12.362;2023-02-28T11:22:31;10.48;;;3.60;;
71896;SDS011;59767;51.344;12.362;2023-02-28T11:25:45;12.45;;;4.20;;
71896;SDS011;59767;51.344;12.362;2023-02-28T11:29:02;10.00;;;3.70;;
71896;SDS011;59767;51.344;12.362;2023-02-28T11:32:19;12.52;;;3.97;;
71896;SDS011;59767;51.344;12.362;2023-02-28T11:35:36;12.73;;;4.00;;
71896;SDS011;59767;51.344;12.362;2023-02-28T11:38:42;11.15;;;3.67;;
71896;SDS011;59767;51.344;12.362;2023-02-28T11:45:15;14.30;;;3.63;;
71896;SDS011;59767;51.344;12.362;2023-02-28T11:58:49;12.75;;;3.90;;
71896;SDS011;59767;51.344;12.362;2023-02-28T12:06:09;9.85;;;4.07;;
71896;SDS011;59767;51.344;12.362;2023-02-28T12:12:39;14.80;;;4.05;;
71896;SDS011;59767;51.344;12.362;2023-02-28T12:19:51;12.90;;;4.50;;
71896;SDS011;59767;51.344;12.362;2023-02-28T12:26:39;12.70;;;4.30;;
71896;SDS011;59767;51.344;12.362;2023-02-28T12:29:48;12.63;;;4.40;;
71896;SDS011;59767;51.344;12.362;2023-02-28T12:33:06;12.25;;;5.20;;
71896;SDS011;59767;51.344;12.362;2023-02-28T12:36:15;11.73;;;4.45;;
71896;SDS011;59767;51.344;12.362;2023-02-28T12:39:30;12.90;;;4.57;;
71896;SDS011;59767;51.344;12.362;2023-02-28T12:42:55;12.32;;;5.18;;
71896;SDS011;59767;51.344;12.362;2023-02-28T12:46:13;13.10;;;5.30;;
71896;SDS011;59767;51.344;12.362;2023-02-28T12:49:31;12.73;;;5.32;;
71896;SDS011;59767;51.344;12.362;2023-02-28T12:56:27;13.18;;;5.28;;
71896;SDS011;59767;51.344;12.362;2023-02-28T13:03:11;14.80;;;5.72;;
71896;SDS011;59767;51.344;12.362;2023-02-28T13:06:28;14.88;;;5.57;;
71896;SDS011;59767;51.344;12.362;2023-02-28T13:09:53;14.02;;;5.50;;
71896;SDS011;59767;51.344;12.362;2023-02-28T13:12:58;12.15;;;5.60;;
71896;SDS011;59767;51.344;12.362;2023-02-28T13:16:08;13.63;;;5.38;;
71896;SDS011;59767;51.344;12.362;2023-02-28T13:19:16;12.82;;;5.30;;
71896;SDS011;59767;51.344;12.362;2023-02-28T13:28:57;14.30;;;5.47;;
71896;SDS011;59767;51.344;12.362;2023-02-28T13:38:16;13.57;;;5.28;;
71896;SDS011;59767;51.344;12.362;2023-02-28T13:44:45;12.88;;;5.32;;
71896;SDS011;59767;51.344;12.362;2023-02-28T13:48:18;13.15;;;5.47;;
71896;SDS011;59767;51.344;12.362;2023-02-28T13:51:40;14.25;;;5.88;;
71896;SDS011;59767;51.344;12.362;2023-02-28T14:07:47;14.02;;;5.07;;
71896;SDS011;59767;51.344;12.362;2023-02-28T14:11:05;12.20;;;4.88;;
71896;SDS011;59767;51.344;12.362;2023-02-28T14:14:53;12.35;;;5.25;;
71896;SDS011;59767;51.344;12.362;2023-02-28T14:17:40;14.52;;;5.55;;
71896;SDS011;59767;51.344;12.362;2023-02-28T14:20:44;11.90;;;4.82;;
71896;SDS011;59767;51.344;12.362;2023-02-28T14:37:24;11.05;;;4.57;;
71896;SDS011;59767;51.344;12.362;2023-02-28T14:40:35;13.73;;;5.05;;
71896;SDS011;59767;51.344;12.362;2023-02-28T14:43:47;11.20;;;5.15;;
71896;SDS011;59767;51.344;12.362;2023-02-28T14:46:56;13.93;;;5.78;;
71896;SDS011;59767;51.344;12.362;2023-02-28T14:50:03;12.80;;;5.15;;
71896;SDS011;59767;51.344;12.362;2023-02-28T14:53:11;14.88;;;5.50;;
71896;SDS011;59767;51.344;12.362;2023-02-28T15:02:35;14.38;;;5.53;;
71896;SDS011;59767;51.344;12.362;2023-02-28T15:05:41;12.48;;;5.47;;
71896;SDS011;59767;51.344;12.362;2023-02-28T15:08:45;15.65;;;5.57;;
71896;SDS011;59767;51.344;12.362;2023-02-28T15:11:49;18.52;;;5.60;;
71896;SDS011;59767;51.344;12.362;2023-02-28T15:14:54;16.15;;;5.88;;
71896;SDS011;59767;51.344;12.362;2023-02-28T15:17:58;14.60;;;5.65;;
71896;SDS011;59767;51.344;12.362;2023-02-28T15:21:05;14.25;;;5.88;;
71896;SDS011;59767;51.344;12.362;2023-02-28T15:27:29;14.00;;;5.50;;
71896;SDS011;59767;51.344;12.362;2023-02-28T15:30:36;13.40;;;5.60;;
71896;SDS011;59767;51.344;12.362;2023-02-28T15:33:47;13.95;;;5.65;;
71896;SDS011;59767;51.344;12.362;2023-02-28T15:36:56;15.75;;;5.70;;
71896;SDS011;59767;51.344;12.362;2023-02-28T15:40:07;15.23;;;5.50;;
71896;SDS011;59767;51.344;12.362;2023-02-28T15:43:18;14.27;;;5.45;;
71896;SDS011;59767;51.344;12.362;2023-02-28T15:46:44;13.90;;;6.00;;
71896;SDS011;59767;51.344;12.362;2023-02-28T15:50:03;12.68;;;5.68;;
71896;SDS011;59767;51.344;12.362;2023-02-28T15:53:15;14.88;;;5.68;;
71896;SDS011;59767;51.344;12.362;2023-02-28T15:59:29;16.08;;;5.65;;
71896;SDS011;59767;51.344;12.362;2023-02-28T16:02:35;16.45;;;6.18;;
71896;SDS011;59767;51.344;12.362;2023-02-28T16:05:41;16.20;;;5.78;;
71896;SDS011;59767;51.344;12.362;2023-02-28T16:08:45;13.75;;;6.05;;
71896;SDS011;59767;51.344;12.362;2023-02-28T16:11:54;15.18;;;6.15;;
71896;SDS011;59767;51.344;12.362;2023-02-28T16:15:00;15.15;;;5.78;;
71896;SDS011;59767;51.344;12.362;2023-02-28T16:18:07;19.55;;;5.90;;
71896;SDS011;59767;51.344;12.362;2023-02-28T16:21:13;13.38;;;5.38;;
71896;SDS011;59767;51.344;12.362;2023-02-28T16:24:17;17.98;;;6.20;;
71896;SDS011;59767;51.344;12.362;2023-02-28T16:27:30;16.77;;;6.10;;
71896;SDS011;59767;51.344;12.362;2023-02-28T16:30:36;14.50;;;5.65;;
71896;SDS011;59767;51.344;12.362;2023-02-28T16:33:40;17.38;;;6.80;;
71896;SDS011;59767;51.344;12.362;2023-02-28T16:36:48;16.77;;;6.65;;
71896;SDS011;59767;51.344;12.362;2023-02-28T16:39:52;15.50;;;6.40;;
71896;SDS011;59767;51.344;12.362;2023-02-28T16:42:57;18.80;;;6.78;;
71896;SDS011;59767;51.344;12.362;2023-02-28T16:46:03;15.10;;;6.82;;
71896;SDS011;59767;51.344;12.362;2023-02-28T16:49:12;17.33;;;7.00;;
71896;SDS011;59767;51.344;12.362;2023-02-28T16:52:16;15.70;;;6.65;;
71896;SDS011;59767;51.344;12.362;2023-02-28T16:55:20;15.65;;;6.80;;
71896;SDS011;59767;51.344;12.362;2023-02-28T16:58:26;16.48;;;7.38;;
71896;SDS011;59767;51.344;12.362;2023-02-28T17:01:31;15.90;;;6.93;;
71896;SDS011;59767;51.344;12.362;2023-02-28T17:04:36;18.48;;;7.18;;
71896;SDS011;59767;51.344;12.362;2023-02-28T17:07:41;15.70;;;6.80;;
71896;SDS011;59767;51.344;12.362;2023-02-28T17:10:45;19.13;;;7.45;;
71896;SDS011;59767;51.344;12.362;2023-02-28T17:13:49;19.20;;;7.32;;
71896;SDS011;59767;51.344;12.362;2023-02-28T17:16:53;20.92;;;7.78;;
71896;SDS011;59767;51.344;12.362;2023-02-28T17:19:57;23.00;;;8.50;;
71896;SDS011;59767;51.344;12.362;2023-02-28T17:23:02;18.70;;;7.57;;
71896;SDS011;59767;51.344;12.362;2023-02-28T17:26:06;16.77;;;7.82;;
71896;SDS011;59767;51.344;12.362;2023-02-28T17:29:17;19.52;;;8.23;;
71896;SDS011;59767;51.344;12.362;2023-02-28T17:32:23;16.30;;;7.47;;
71896;SDS011;59767;51.344;12.362;2023-02-28T17:35:27;23.13;;;8.02;;
71896;SDS011;59767;51.344;12.362;2023-02-28T17:38:32;22.35;;;7.88;;
71896;SDS011;59767;51.344;12.362;2023-02-28T17:41:36;20.52;;;8.32;;
71896;SDS011;59767;51.344;12.362;2023-02-28T17:44:40;22.83;;;7.50;;
71896;SDS011;59767;51.344;12.362;2023-02-28T17:47:45;20.02;;;7.93;;
71896;SDS011;59767;51.344;12.362;2023-02-28T17:50:51;18.20;;;7.57;;
71896;SDS011;59767;51.344;12.362;2023-02-28T17:53:55;20.05;;;8.07;;
71896;SDS011;59767;51.344;12.362;2023-02-28T17:56:59;21.95;;;8.57;;
71896;SDS011;59767;51.344;12.362;2023-02-28T18:00:04;20.80;;;8.60;;
71896;SDS011;59767;51.344;12.362;2023-02-28T18:03:12;22.30;;;8.55;;
71896;SDS011;59767;51.344;12.362;2023-02-28T18:06:39;22.77;;;8.98;;
71896;SDS011;59767;51.344;12.362;2023-02-28T18:09:53;25.77;;;9.35;;
71896;SDS011;59767;51.344;12.362;2023-02-28T18:12:57;21.90;;;8.93;;
71896;SDS011;59767;51.344;12.362;2023-02-28T18:16:01;20.08;;;8.65;;
71896;SDS011;59767;51.344;12.362;2023-02-28T18:19:06;19.88;;;8.63;;
71896;SDS011;59767;51.344;12.362;2023-02-28T18:22:11;20.92;;;8.60;;
71896;SDS011;59767;51.344;12.362;2023-02-28T18:25:15;21.83;;;9.45;;
71896;SDS011;59767;51.344;12.362;2023-02-28T18:28:19;25.38;;;9.93;;
71896;SDS011;59767;51.344;12.362;2023-02-28T18:31:23;30.98;;;13.52;;
71896;SDS011;59767;51.344;12.362;2023-02-28T18:34:27;20.88;;;8.88;;
71896;SDS011;59767;51.344;12.362;2023-02-28T18:37:33;22.20;;;8.88;;
71896;SDS011;59767;51.344;12.362;2023-02-28T18:40:37;22.83;;;9.23;;
71896;SDS011;59767;51.344;12.362;2023-02-28T18:43:42;29.30;;;10.68;;
71896;SDS011;59767;51.344;12.362;2023-02-28T18:46:47;22.00;;;9.63;;
71896;SDS011;59767;51.344;12.362;2023-02-28T18:49:53;27.88;;;10.32;;
71896;SDS011;59767;51.344;12.362;2023-02-28T18:52:57;22.90;;;10.20;;
71896;SDS011;59767;51.344;12.362;2023-02-28T18:56:02;26.92;;;10.25;;
71896;SDS011;59767;51.344;12.362;2023-02-28T18:59:08;23.35;;;9.95;;
71896;SDS011;59767;51.344;12.362;2023-02-28T19:02:13;20.50;;;9.05;;
71896;SDS011;59767;51.344;12.362;2023-02-28T19:05:18;36.67;;;10.73;;
71896;SDS011;59767;51.344;12.362;2023-02-28T19:08:23;27.92;;;10.60;;
71896;SDS011;59767;51.344;12.362;2023-02-28T19:11:28;28.50;;;10.50;;
71896;SDS011;59767;51.344;12.362;2023-02-28T19:14:32;26.20;;;10.45;;
71896;SDS011;59767;51.344;12.362;2023-02-28T19:17:37;22.38;;;9.63;;
71896;SDS011;59767;51.344;12.362;2023-02-28T19:20:40;22.48;;;9.50;;
71896;SDS011;59767;51.344;12.362;2023-02-28T19:23:45;22.50;;;9.77;;
71896;SDS011;59767;51.344;12.362;2023-02-28T19:26:49;24.55;;;10.35;;
71896;SDS011;59767;51.344;12.362;2023-02-28T19:29:53;25.50;;;10.57;;
71896;SDS011;59767;51.344;12.362;2023-02-28T19:33:01;24.67;;;10.88;;
71896;SDS011;59767;51.344;12.362;2023-02-28T19:36:06;25.08;;;10.90;;
71896;SDS011;59767;51.344;12.362;2023-02-28T19:39:10;27.23;;;10.90;;
71896;SDS011;59767;51.344;12.362;2023-02-28T19:42:15;22.88;;;10.93;;
71896;SDS011;59767;51.344;12.362;2023-02-28T19:45:23;26.42;;;11.60;;
71896;SDS011;59767;51.344;12.362;2023-02-28T19:48:28;31.00;;;13.30;;
71896;SDS011;59767;51.344;12.362;2023-02-28T19:51:33;30.27;;;12.07;;
71896;SDS011;59767;51.344;12.362;2023-02-28T19:54:38;30.40;;;11.50;;
71896;SDS011;59767;51.344;12.362;2023-02-28T19:57:42;29.75;;;12.00;;
71896;SDS011;59767;51.344;12.362;2023-02-28T20:00:48;33.25;;;12.13;;
71896;SDS011;59767;51.344;12.362;2023-02-28T20:03:52;30.02;;;12.02;;
71896;SDS011;59767;51.344;12.362;2023-02-28T20:06:59;29.13;;;13.02;;
71896;SDS011;59767;51.344;12.362;2023-02-28T20:10:03;30.05;;;12.57;;
71896;SDS011;59767;51.344;12.362;2023-02-28T20:13:08;29.80;;;12.98;;
71896;SDS011;59767;51.344;12.362;2023-02-28T20:16:13;27.73;;;12.43;;
71896;SDS011;59767;51.344;12.362;2023-02-28T20:19:18;28.98;;;13.07;;